Juliaetta, Idaho
Current Conditions -  °F | °C
As of 10:56 AM on Friday 21 Nov 2014 (Local Time) from KLWS Reporting Station
Overcast Overcast  
Wind Chill: 38°   Ceiling: 8500
Heat Index: 43°   Visibility: 10mi
Dew Point: 36°   Wind: 8mph
Humidity: 76%   Direction: 80°E
Pressure: 29.9"   Gusts: NA
Location:  46.58°N, 116.71°W
Report Text: KLWS 211856Z 08007KT 10SM OVC085 06/02 A2990 RMK AO2 PRESFR SLP131 T00610022
Loading
Personal Weather Stations






























Interactive Weather Map New forecast layout! Learn more

10-Day Weather Forecast

Advertisements
Track Severe Weather on mobile